Stewartsville, Missouri
Current Conditions -  °F | °C
As of 3:16 PM on Thursday 18 Dec 2014 (Local Time) from KSTJ Reporting Station
Overcast Overcast  
Wind Chill: 27°   Ceiling: 1300
Heat Index: 32°   Visibility: 10mi
Dew Point: 27°   Wind: 5mph
Humidity: 82%   Direction: 100°E
Pressure: 30.22"   Gusts: NA
Location:  39.75°N, 94.5°W
Report Text: KSTJ 182116Z 10004KT 10SM OVC013 00/M03 A3022 RMK AO2 T00001028
Loading
Personal Weather Stations






























Interactive Weather Map New forecast layout! Learn more

10-Day Weather Forecast

Advertisements
Track Severe Weather on mobile